メインページ
METAR-TAF:

METAR-TAF

空港 :

シルビオ・ペッティロッシ国際空港

アスンシオン, パラグアイ

緯度: 25-16S, 経度: 057-38W, 海抜: 101m

現時点の気象観測

当レポートは59分前の06:00(UTC)に作成
変向風 3kt
気温 21°C
湿度 88%
気圧 1012 hPa
視程10km以上
1,500メートル以下は雲なし、積乱雲なし

METAR: SGAS 200600Z VRB03KT CAVOK 21/19 Q1012

時間: 03:59 (06:59 UTC)

予報

当レポートは3時間59分前の03:00(UTC)に作成
予報は20日の 06時(UTC)から 21日の 06時(UTC)まで有効
変向風 5kt
視程10km以上
1,500メートル以下は雲なし、積乱雲なし
20日の 06時(UTC)から 20日の 10時(UTC)まで徐々に
東/北東の風 8kt
20日の 13時(UTC)から 20日の 16時(UTC)まで徐々に
変向風 6kt
視程10km以上
高度3300ftの雲は散在している
確率 30%
20日の 18時(UTC)から 20日の 21時(UTC)まで
視程: 6000m
高度2000ftの千切れ雲あり
高度4000ftの雲はほとんどない, 塔状積雲.
にわか雨
20日の 22時(UTC)から 21日の 00時(UTC)まで徐々に
の風 6kt
視程10km以上
高度3000ftの雲は散在している

TAF: SGAS 200300Z 2006/2106 VRB05KT CAVOK TX31/2019Z TN21/2009Z BECMG 2006/2010 07008KT BECMG 2013/2016 VRB06KT 9999 SCT033 PROB30 2018/2021 6000 SHRA BKN020 FEW040TCU BECMG 2022/2100 09006KT 9999 SCT030

4,000以上の空港の気象観測と天気予報(METAR報とTAF報)

利用可能な観測所は地図上に黄色い丸と赤い丸で示す。

丸の上にカーソルを重ねると観測所名を参照できる。

次にクリックすると気象観測と天気予報を参照できる。

マップの切り替え:黒色「×」印の緑ボタンをクリックして拡大、「-」印の緑ボタンをクリックして縮小、緑色の三角印をクリックして隣りの地図に切り替え


METAR-TAF: